KTVL/TVL METAR and TAF weather

Enter ICAO airport designator
Station Type Date Time Source
KTVL METAR 2019/02/23 00:53 UTC NOAA

KTVL 230053Z AUTO 00000KT 10SM CLR M04/M08 A2998 RMK AO2 SLP214 T10391078


Station Type Date Time Source
KTVL Decoded METAR 2019/02/23 00:53 UTC NOAA

SOUTH LAKE TAHOE AIRPORT, CA, United States (KTVL) 38-53N 119-59W 1925M
Feb 22, 2019 - 07:53 PM EST / 2019.02.23 0053 UTC
Wind: Calm:0
Visibility: 10 mile(s):0
Sky conditions: clear
Temperature: 25.0 F (-3.9 C)
Dew Point: 18.0 F (-7.8 C)
Relative Humidity: 74%
Pressure (altimeter): 29.98 in. Hg (1015 hPa)
ob: KTVL 230053Z AUTO 00000KT 10SM CLR M04/M08 A2998 RMK AO2 SLP214 T10391078
cycle: 1

Station Type Date Time Source
KTVL TAF 2019/02/22 18:30 UTC NOAA

TAF KTVL 221729Z 2218/2318 04007KT P6SM SCT200
FM230100 VRB03KT P6SM SCT060 SCT180


Example: see airport list